sensor_id;sensor_type;location;lat;lon;timestamp;pressure;altitude;pressure_sealevel;temperature;humidity
12722;BME280;6425;50.316;8.114;2023-05-03T00:00:00;1001;;;3.4;85
12722;BME280;6425;50.316;8.114;2023-05-03T00:03:00;1001;;;3.4;85.6
12722;BME280;6425;50.316;8.114;2023-05-03T00:06:07;1001;;;3.6;85.4
12722;BME280;6425;50.316;8.114;2023-05-03T00:09:00;1001;;;3.5;84.8
12722;BME280;6425;50.316;8.114;2023-05-03T00:12:00;1001;;;3.3;85.1
12722;BME280;6425;50.316;8.114;2023-05-03T00:15:00;1001;;;3.4;85.8
12722;BME280;6425;50.316;8.114;2023-05-03T00:18:00;1001;;;3.5;85.5
12722;BME280;6425;50.316;8.114;2023-05-03T00:21:00;1001;;;3.5;84.4
12722;BME280;6425;50.316;8.114;2023-05-03T00:24:00;1001;;;3.5;83.7
12722;BME280;6425;50.316;8.114;2023-05-03T00:27:00;1001;;;3.5;83.7
12722;BME280;6425;50.316;8.114;2023-05-03T00:30:00;1001;;;3.2;85
12722;BME280;6425;50.316;8.114;2023-05-03T00:33:00;1001;;;3.2;85.6
12722;BME280;6425;50.316;8.114;2023-05-03T00:36:05;1001;;;3.2;85.7
12722;BME280;6425;50.316;8.114;2023-05-03T00:39:00;1001;;;3.1;85.7
12722;BME280;6425;50.316;8.114;2023-05-03T00:42:00;1001;;;2.8;86.6
12722;BME280;6425;50.316;8.114;2023-05-03T00:45:00;1001;;;2.9;87.3
12722;BME280;6425;50.316;8.114;2023-05-03T00:48:00;1001;;;2.9;87.1
12722;BME280;6425;50.316;8.114;2023-05-03T00:51:00;1001;;;2.7;87.2
12722;BME280;6425;50.316;8.114;2023-05-03T00:54:00;1001;;;2.6;88.1
12722;BME280;6425;50.316;8.114;2023-05-03T00:57:00;1000;;;2.5;88.9
12722;BME280;6425;50.316;8.114;2023-05-03T01:00:00;1000;;;2.5;89.4
12722;BME280;6425;50.316;8.114;2023-05-03T01:03:00;1000;;;2.6;89.5
12722;BME280;6425;50.316;8.114;2023-05-03T01:06:01;1000;;;2.9;89.1
12722;BME280;6425;50.316;8.114;2023-05-03T01:09:00;1000;;;3;87.4
12722;BME280;6425;50.316;8.114;2023-05-03T01:12:03;1000;;;3;86.3
12722;BME280;6425;50.316;8.114;2023-05-03T01:15:01;1000;;;3;85.8
12722;BME280;6425;50.316;8.114;2023-05-03T01:18:01;1001;;;3;85.8
12722;BME280;6425;50.316;8.114;2023-05-03T01:21:00;1000;;;2.9;85.9
12722;BME280;6425;50.316;8.114;2023-05-03T01:24:02;1000;;;2.9;86.2
12722;BME280;6425;50.316;8.114;2023-05-03T01:27:00;1000;;;2.9;86.2
12722;BME280;6425;50.316;8.114;2023-05-03T01:30:01;1000;;;2.6;86.6
12722;BME280;6425;50.316;8.114;2023-05-03T01:33:02;1000;;;2.5;87.3
12722;BME280;6425;50.316;8.114;2023-05-03T01:36:01;1000;;;2.5;87.8
12722;BME280;6425;50.316;8.114;2023-05-03T01:39:00;1000;;;2.7;87.4
12722;BME280;6425;50.316;8.114;2023-05-03T01:42:00;1000;;;2.9;86.3
12722;BME280;6425;50.316;8.114;2023-05-03T01:45:00;1001;;;3;85.3
12722;BME280;6425;50.316;8.114;2023-05-03T01:48:00;1000;;;3;84.8
12722;BME280;6425;50.316;8.114;2023-05-03T01:51:00;1001;;;3;83.3
12722;BME280;6425;50.316;8.114;2023-05-03T01:54:00;1001;;;3;83.3
12722;BME280;6425;50.316;8.114;2023-05-03T01:57:00;1001;;;2.9;83.6
12722;BME280;6425;50.316;8.114;2023-05-03T02:00:00;1001;;;2.9;83.3
12722;BME280;6425;50.316;8.114;2023-05-03T02:03:00;1001;;;2.6;84.6
12722;BME280;6425;50.316;8.114;2023-05-03T02:06:00;1001;;;2.6;85.7
12722;BME280;6425;50.316;8.114;2023-05-03T02:09:00;1001;;;2.7;86.4
12722;BME280;6425;50.316;8.114;2023-05-03T02:12:00;1001;;;2.8;85.3
12722;BME280;6425;50.316;8.114;2023-05-03T02:15:00;1001;;;2.7;84.7
12722;BME280;6425;50.316;8.114;2023-05-03T02:18:00;1001;;;2.4;85.1
12722;BME280;6425;50.316;8.114;2023-05-03T02:21:00;1001;;;2.4;85.9
12722;BME280;6425;50.316;8.114;2023-05-03T02:24:00;1001;;;2.3;86.4
12722;BME280;6425;50.316;8.114;2023-05-03T02:27:00;1001;;;2.4;86.9
12722;BME280;6425;50.316;8.114;2023-05-03T02:30:00;1001;;;2.3;86.6
12722;BME280;6425;50.316;8.114;2023-05-03T02:33:00;1001;;;2.1;87
12722;BME280;6425;50.316;8.114;2023-05-03T02:36:00;1001;;;2;87.6
12722;BME280;6425;50.316;8.114;2023-05-03T02:39:00;1001;;;2;88.9
12722;BME280;6425;50.316;8.114;2023-05-03T02:42:00;1001;;;2;88.7
12722;BME280;6425;50.316;8.114;2023-05-03T02:45:00;1001;;;2.1;88.3
12722;BME280;6425;50.316;8.114;2023-05-03T02:48:00;1001;;;2;87.9
12722;BME280;6425;50.316;8.114;2023-05-03T02:51:00;1001;;;2.1;87.9
12722;BME280;6425;50.316;8.114;2023-05-03T02:54:00;1001;;;1.9;88.4
12722;BME280;6425;50.316;8.114;2023-05-03T02:57:00;1001;;;2;88.7
12722;BME280;6425;50.316;8.114;2023-05-03T03:00:00;1001;;;1.9;88.4
12722;BME280;6425;50.316;8.114;2023-05-03T03:03:00;1001;;;1.6;89.8
12722;BME280;6425;50.316;8.114;2023-05-03T03:06:00;1001;;;1.8;91.1
12722;BME280;6425;50.316;8.114;2023-05-03T03:09:00;1001;;;1.8;91.1
12722;BME280;6425;50.316;8.114;2023-05-03T03:12:00;1001;;;1.8;91.1
12722;BME280;6425;50.316;8.114;2023-05-03T03:15:00;1001;;;1.9;90.9
12722;BME280;6425;50.316;8.114;2023-05-03T03:18:00;1001;;;1.9;89.9
12722;BME280;6425;50.316;8.114;2023-05-03T03:21:00;1001;;;2;89.5
12722;BME280;6425;50.316;8.114;2023-05-03T03:24:00;1001;;;2.2;88.7
12722;BME280;6425;50.316;8.114;2023-05-03T03:27:00;1001;;;2;87.7
12722;BME280;6425;50.316;8.114;2023-05-03T03:30:00;1001;;;2;87.2
12722;BME280;6425;50.316;8.114;2023-05-03T03:33:00;1001;;;1.3;87.2
12722;BME280;6425;50.316;8.114;2023-05-03T03:36:00;1001;;;1.3;88.8
12722;BME280;6425;50.316;8.114;2023-05-03T03:39:00;1001;;;1.6;88.6
12722;BME280;6425;50.316;8.114;2023-05-03T03:42:00;1001;;;1.7;87.9
12722;BME280;6425;50.316;8.114;2023-05-03T03:45:00;1001;;;1.9;87
12722;BME280;6425;50.316;8.114;2023-05-03T03:48:00;1001;;;1.8;86.5
12722;BME280;6425;50.316;8.114;2023-05-03T03:51:00;1001;;;1.8;86.2
12722;BME280;6425;50.316;8.114;2023-05-03T03:54:00;1001;;;1.4;87.1
12722;BME280;6425;50.316;8.114;2023-05-03T03:57:00;1001;;;1;89.1
12722;BME280;6425;50.316;8.114;2023-05-03T04:00:00;1001;;;0.9;90.6
12722;BME280;6425;50.316;8.114;2023-05-03T04:03:00;1001;;;0.8;91.8
12722;BME280;6425;50.316;8.114;2023-05-03T04:06:00;1001;;;0.9;93
12722;BME280;6425;50.316;8.114;2023-05-03T04:09:00;1001;;;1;93.5
12722;BME280;6425;50.316;8.114;2023-05-03T04:12:00;1001;;;1.1;93.4
12722;BME280;6425;50.316;8.114;2023-05-03T04:15:00;1001;;;1.2;92.9
12722;BME280;6425;50.316;8.114;2023-05-03T04:18:00;1001;;;1.3;92.6
12722;BME280;6425;50.316;8.114;2023-05-03T04:21:00;1001;;;1.6;92
12722;BME280;6425;50.316;8.114;2023-05-03T04:24:00;1001;;;1.7;90.9
12722;BME280;6425;50.316;8.114;2023-05-03T04:27:00;1001;;;1.8;90.2
12722;BME280;6425;50.316;8.114;2023-05-03T04:30:00;1001;;;1.9;89.7
12722;BME280;6425;50.316;8.114;2023-05-03T04:33:00;1001;;;1.9;89.7
12722;BME280;6425;50.316;8.114;2023-05-03T04:36:00;1001;;;2.1;89.6
12722;BME280;6425;50.316;8.114;2023-05-03T04:39:00;1001;;;2.2;89.2
12722;BME280;6425;50.316;8.114;2023-05-03T04:42:00;1001;;;2.5;88.5
12722;BME280;6425;50.316;8.114;2023-05-03T04:45:00;1001;;;2.9;87
12722;BME280;6425;50.316;8.114;2023-05-03T04:48:00;1001;;;3;85.5
12722;BME280;6425;50.316;8.114;2023-05-03T04:51:00;1001;;;3.4;85.5
12722;BME280;6425;50.316;8.114;2023-05-03T04:54:00;1001;;;3.7;84.2
12722;BME280;6425;50.316;8.114;2023-05-03T04:57:00;1001;;;3;81.7
12722;BME280;6425;50.316;8.114;2023-05-03T05:00:00;1001;;;2.9;83.3
12722;BME280;6425;50.316;8.114;2023-05-03T05:03:00;1001;;;3;83.7
12722;BME280;6425;50.316;8.114;2023-05-03T05:06:00;1001;;;2.7;84.5
12722;BME280;6425;50.316;8.114;2023-05-03T05:09:00;1001;;;2.9;85.1
12722;BME280;6425;50.316;8.114;2023-05-03T05:12:00;1001;;;3.3;85
12722;BME280;6425;50.316;8.114;2023-05-03T05:15:00;1001;;;3.8;83.8
12722;BME280;6425;50.316;8.114;2023-05-03T05:18:00;1001;;;4;82.1
12722;BME280;6425;50.316;8.114;2023-05-03T05:21:00;1001;;;3.8;82
12722;BME280;6425;50.316;8.114;2023-05-03T05:24:00;1001;;;4;82
12722;BME280;6425;50.316;8.114;2023-05-03T05:27:00;1001;;;3.9;82
12722;BME280;6425;50.316;8.114;2023-05-03T05:30:00;1001;;;4.3;81.7
12722;BME280;6425;50.316;8.114;2023-05-03T05:33:00;1001;;;4.6;81.2
12722;BME280;6425;50.316;8.114;2023-05-03T05:36:00;1001;;;5.2;81
12722;BME280;6425;50.316;8.114;2023-05-03T05:39:00;1001;;;5.9;78.8
12722;BME280;6425;50.316;8.114;2023-05-03T05:42:00;1001;;;6.8;73.9
12722;BME280;6425;50.316;8.114;2023-05-03T05:45:00;1001;;;7.6;68.6
12722;BME280;6425;50.316;8.114;2023-05-03T05:48:00;1001;;;7.9;66.1
12722;BME280;6425;50.316;8.114;2023-05-03T05:51:00;1001;;;8;65.4
12722;BME280;6425;50.316;8.114;2023-05-03T05:54:00;1001;;;7.9;65.8
12722;BME280;6425;50.316;8.114;2023-05-03T05:57:00;1001;;;7.3;67.2
12722;BME280;6425;50.316;8.114;2023-05-03T06:00:00;1001;;;6.9;69.1
12722;BME280;6425;50.316;8.114;2023-05-03T06:03:00;1001;;;7;68.7
12722;BME280;6425;50.316;8.114;2023-05-03T06:06:00;1001;;;6.7;71.5
12722;BME280;6425;50.316;8.114;2023-05-03T06:09:00;1001;;;6.9;72.1
12722;BME280;6425;50.316;8.114;2023-05-03T06:12:00;1001;;;7.2;72
12722;BME280;6425;50.316;8.114;2023-05-03T06:15:00;1001;;;7.5;70.2
12722;BME280;6425;50.316;8.114;2023-05-03T06:18:00;1001;;;7;70.8
12722;BME280;6425;50.316;8.114;2023-05-03T06:21:00;1001;;;6;75.1
12722;BME280;6425;50.316;8.114;2023-05-03T06:24:00;1001;;;5.9;75.6
12722;BME280;6425;50.316;8.114;2023-05-03T06:27:00;1001;;;6;77.2
12722;BME280;6425;50.316;8.114;2023-05-03T06:30:00;1001;;;6.1;76
12722;BME280;6425;50.316;8.114;2023-05-03T06:33:00;1001;;;6.7;74.5
12722;BME280;6425;50.316;8.114;2023-05-03T06:36:00;1001;;;7.1;72.5
12722;BME280;6425;50.316;8.114;2023-05-03T06:39:00;1001;;;8.3;66.2
12722;BME280;6425;50.316;8.114;2023-05-03T06:42:00;1001;;;8;66.4
12722;BME280;6425;50.316;8.114;2023-05-03T06:45:00;1001;;;8.2;66.1
12722;BME280;6425;50.316;8.114;2023-05-03T06:48:00;1001;;;8;66.9
12722;BME280;6425;50.316;8.114;2023-05-03T06:51:00;1001;;;7.7;68.6
12722;BME280;6425;50.316;8.114;2023-05-03T06:54:00;1001;;;8.3;68.5
12722;BME280;6425;50.316;8.114;2023-05-03T06:57:00;1001;;;8.7;66.8
12722;BME280;6425;50.316;8.114;2023-05-03T07:00:00;1001;;;8.8;66
12722;BME280;6425;50.316;8.114;2023-05-03T07:03:00;1001;;;8.9;66.1
12722;BME280;6425;50.316;8.114;2023-05-03T07:06:00;1001;;;8.8;65.5
12722;BME280;6425;50.316;8.114;2023-05-03T07:09:00;1001;;;8.5;66.1
12722;BME280;6425;50.316;8.114;2023-05-03T07:12:00;1001;;;8.9;65.6
12722;BME280;6425;50.316;8.114;2023-05-03T07:15:00;1001;;;8.8;64.4
12722;BME280;6425;50.316;8.114;2023-05-03T07:18:00;1001;;;9.3;64.1
12722;BME280;6425;50.316;8.114;2023-05-03T07:21:00;1001;;;9.6;61.7
12722;BME280;6425;50.316;8.114;2023-05-03T07:24:00;1001;;;9.8;61.2
12722;BME280;6425;50.316;8.114;2023-05-03T07:27:00;1001;;;9.8;60.3
12722;BME280;6425;50.316;8.114;2023-05-03T07:30:00;1001;;;9.9;60.3
12722;BME280;6425;50.316;8.114;2023-05-03T07:33:00;1001;;;9.9;57.8
12722;BME280;6425;50.316;8.114;2023-05-03T07:36:00;1001;;;9.7;58.2
12722;BME280;6425;50.316;8.114;2023-05-03T07:39:00;1001;;;9.9;57.9
12722;BME280;6425;50.316;8.114;2023-05-03T07:42:00;1001;;;10.2;57.5
12722;BME280;6425;50.316;8.114;2023-05-03T07:45:00;1001;;;10;56.7
12722;BME280;6425;50.316;8.114;2023-05-03T07:48:00;1001;;;9.4;57.5
12722;BME280;6425;50.316;8.114;2023-05-03T07:51:01;1001;;;9.5;59.6
12722;BME280;6425;50.316;8.114;2023-05-03T07:54:00;1001;;;9.9;57.1
12722;BME280;6425;50.316;8.114;2023-05-03T07:57:00;1001;;;10.3;55.5
12722;BME280;6425;50.316;8.114;2023-05-03T08:00:00;1001;;;11;55.2
12722;BME280;6425;50.316;8.114;2023-05-03T08:03:00;1001;;;10.9;53
12722;BME280;6425;50.316;8.114;2023-05-03T08:06:00;1001;;;11.2;51.8
12722;BME280;6425;50.316;8.114;2023-05-03T08:09:00;1001;;;11.5;52
12722;BME280;6425;50.316;8.114;2023-05-03T08:12:00;1001;;;11.8;50.8
12722;BME280;6425;50.316;8.114;2023-05-03T08:15:00;1001;;;11.3;51
12722;BME280;6425;50.316;8.114;2023-05-03T08:18:00;1001;;;10.8;52.7
12722;BME280;6425;50.316;8.114;2023-05-03T08:21:00;1001;;;10.6;52.3
12722;BME280;6425;50.316;8.114;2023-05-03T08:24:00;1001;;;10.5;53
12722;BME280;6425;50.316;8.114;2023-05-03T08:27:00;1001;;;10.9;53
12722;BME280;6425;50.316;8.114;2023-05-03T08:30:00;1001;;;10.9;51.8
12722;BME280;6425;50.316;8.114;2023-05-03T08:33:00;1001;;;10.5;53.4
12722;BME280;6425;50.316;8.114;2023-05-03T08:36:00;1001;;;11.5;52.2
12722;BME280;6425;50.316;8.114;2023-05-03T08:39:00;1001;;;12.2;48.3
12722;BME280;6425;50.316;8.114;2023-05-03T08:42:00;1001;;;12.2;48
12722;BME280;6425;50.316;8.114;2023-05-03T08:45:00;1001;;;11.9;48.4
12722;BME280;6425;50.316;8.114;2023-05-03T08:48:00;1001;;;11.8;48.3
12722;BME280;6425;50.316;8.114;2023-05-03T08:51:00;1000;;;11.9;48.2
12722;BME280;6425;50.316;8.114;2023-05-03T08:54:00;1000;;;11.9;50
12722;BME280;6425;50.316;8.114;2023-05-03T08:57:00;1000;;;11.8;48.1
12722;BME280;6425;50.316;8.114;2023-05-03T09:00:00;1000;;;11.6;49.4
12722;BME280;6425;50.316;8.114;2023-05-03T09:03:00;1000;;;11.9;49.3
12722;BME280;6425;50.316;8.114;2023-05-03T09:06:00;1000;;;12.3;46.3
12722;BME280;6425;50.316;8.114;2023-05-03T09:09:00;1000;;;11.5;47.5
12722;BME280;6425;50.316;8.114;2023-05-03T09:12:00;1000;;;11.7;48.7
12722;BME280;6425;50.316;8.114;2023-05-03T09:15:00;1000;;;12;50
12722;BME280;6425;50.316;8.114;2023-05-03T09:18:16;1000;;;11.8;50.1
12722;BME280;6425;50.316;8.114;2023-05-03T09:21:00;1000;;;11.9;49
12722;BME280;6425;50.316;8.114;2023-05-03T09:24:00;1000;;;11.9;48.9
12722;BME280;6425;50.316;8.114;2023-05-03T09:27:00;1000;;;12.3;48.2
12722;BME280;6425;50.316;8.114;2023-05-03T09:30:05;1000;;;12.6;48.4
12722;BME280;6425;50.316;8.114;2023-05-03T09:33:00;1000;;;12.5;47.5
12722;BME280;6425;50.316;8.114;2023-05-03T09:36:00;1000;;;13.3;45.4
12722;BME280;6425;50.316;8.114;2023-05-03T09:39:00;1000;;;13.5;45.7
12722;BME280;6425;50.316;8.114;2023-05-03T09:42:02;1000;;;13.3;45.9
12722;BME280;6425;50.316;8.114;2023-05-03T09:45:00;1000;;;13.1;46
12722;BME280;6425;50.316;8.114;2023-05-03T09:48:00;1000;;;12.4;47.9
12722;BME280;6425;50.316;8.114;2023-05-03T09:51:00;1000;;;12.6;48.4
12722;BME280;6425;50.316;8.114;2023-05-03T09:54:00;1000;;;13.5;46
12722;BME280;6425;50.316;8.114;2023-05-03T09:57:00;1000;;;13.5;45.9
12722;BME280;6425;50.316;8.114;2023-05-03T10:00:00;1000;;;13.5;45.3
12722;BME280;6425;50.316;8.114;2023-05-03T10:03:00;1000;;;13.3;45.6
12722;BME280;6425;50.316;8.114;2023-05-03T10:06:00;1000;;;12.8;46.9
12722;BME280;6425;50.316;8.114;2023-05-03T10:09:01;1000;;;12.9;47.3
12722;BME280;6425;50.316;8.114;2023-05-03T10:12:00;1000;;;13.3;47.6
12722;BME280;6425;50.316;8.114;2023-05-03T10:15:00;1000;;;13.7;45.4
12722;BME280;6425;50.316;8.114;2023-05-03T10:18:00;1000;;;14.2;45.6
12722;BME280;6425;50.316;8.114;2023-05-03T10:21:00;1000;;;14.2;45.5
12722;BME280;6425;50.316;8.114;2023-05-03T10:24:08;1000;;;14;44
12722;BME280;6425;50.316;8.114;2023-05-03T10:27:00;1000;;;13.1;45.2
12722;BME280;6425;50.316;8.114;2023-05-03T10:30:00;1000;;;13.4;45.2
12722;BME280;6425;50.316;8.114;2023-05-03T10:33:27;1000;;;13.5;46.4
12722;BME280;6425;50.316;8.114;2023-05-03T10:36:03;1000;;;14.4;44.4
12722;BME280;6425;50.316;8.114;2023-05-03T10:39:00;1000;;;13.9;44.7
12722;BME280;6425;50.316;8.114;2023-05-03T10:42:00;1000;;;14.3;44.2
12722;BME280;6425;50.316;8.114;2023-05-03T10:45:00;1000;;;15.2;43.3
12722;BME280;6425;50.316;8.114;2023-05-03T10:48:16;1000;;;14.5;44
12722;BME280;6425;50.316;8.114;2023-05-03T10:54:00;1000;;;14.8;43.7
12722;BME280;6425;50.316;8.114;2023-05-03T10:57:00;1000;;;15;43.4
12722;BME280;6425;50.316;8.114;2023-05-03T11:00:00;1000;;;13.5;46.2
12722;BME280;6425;50.316;8.114;2023-05-03T11:03:03;1000;;;13.8;46.1
12722;BME280;6425;50.316;8.114;2023-05-03T11:06:00;1000;;;14.1;45.6
12722;BME280;6425;50.316;8.114;2023-05-03T11:09:00;1000;;;14.5;44
12722;BME280;6425;50.316;8.114;2023-05-03T11:12:03;1000;;;14.6;44.2
12722;BME280;6425;50.316;8.114;2023-05-03T11:15:00;1000;;;14.6;43.4
12722;BME280;6425;50.316;8.114;2023-05-03T11:18:00;1000;;;14.8;42.8
12722;BME280;6425;50.316;8.114;2023-05-03T11:21:00;1000;;;15.2;42.6
12722;BME280;6425;50.316;8.114;2023-05-03T11:24:00;1000;;;15.3;43.5
12722;BME280;6425;50.316;8.114;2023-05-03T11:27:00;1000;;;15;42.3
12722;BME280;6425;50.316;8.114;2023-05-03T11:30:00;1000;;;15.1;42.2
12722;BME280;6425;50.316;8.114;2023-05-03T11:33:00;999;;;15.6;41.6
12722;BME280;6425;50.316;8.114;2023-05-03T11:36:00;999;;;15.4;41.1
12722;BME280;6425;50.316;8.114;2023-05-03T11:39:00;999;;;15.3;42
12722;BME280;6425;50.316;8.114;2023-05-03T11:42:00;999;;;15.4;40.6
12722;BME280;6425;50.316;8.114;2023-05-03T11:45:00;999;;;15.1;41.1
12722;BME280;6425;50.316;8.114;2023-05-03T11:48:00;999;;;15.4;41.7
12722;BME280;6425;50.316;8.114;2023-05-03T11:51:05;999;;;15.4;41.8
12722;BME280;6425;50.316;8.114;2023-05-03T11:54:00;999;;;15;42.3
12722;BME280;6425;50.316;8.114;2023-05-03T11:57:09;999;;;15.6;41.4
12722;BME280;6425;50.316;8.114;2023-05-03T12:00:08;999;;;15.7;40.7
12722;BME280;6425;50.316;8.114;2023-05-03T12:03:00;999;;;16.7;39.7
12722;BME280;6425;50.316;8.114;2023-05-03T12:06:00;999;;;17.5;38.1
12722;BME280;6425;50.316;8.114;2023-05-03T12:09:00;999;;;16.1;39.6
12722;BME280;6425;50.316;8.114;2023-05-03T12:12:00;999;;;17;39.7
12722;BME280;6425;50.316;8.114;2023-05-03T12:15:00;999;;;16.7;37.5
12722;BME280;6425;50.316;8.114;2023-05-03T12:18:00;999;;;16;39
12722;BME280;6425;50.316;8.114;2023-05-03T12:21:00;999;;;15.9;39.9
12722;BME280;6425;50.316;8.114;2023-05-03T12:24:00;999;;;16.3;38.7
12722;BME280;6425;50.316;8.114;2023-05-03T12:27:00;999;;;16.7;37.9
12722;BME280;6425;50.316;8.114;2023-05-03T12:30:00;999;;;16.3;38.4
12722;BME280;6425;50.316;8.114;2023-05-03T12:33:00;999;;;16.2;38.7
12722;BME280;6425;50.316;8.114;2023-05-03T12:36:00;999;;;16.3;39.3
12722;BME280;6425;50.316;8.114;2023-05-03T12:39:00;999;;;17.2;36.4
12722;BME280;6425;50.316;8.114;2023-05-03T12:42:00;999;;;16.8;37.2
12722;BME280;6425;50.316;8.114;2023-05-03T12:45:00;999;;;17.5;35.3
12722;BME280;6425;50.316;8.114;2023-05-03T12:48:00;999;;;17.4;35.8
12722;BME280;6425;50.316;8.114;2023-05-03T12:51:00;999;;;17.5;35.8
12722;BME280;6425;50.316;8.114;2023-05-03T12:54:00;999;;;17.3;35.5
12722;BME280;6425;50.316;8.114;2023-05-03T12:57:00;998;;;17;37.3
12722;BME280;6425;50.316;8.114;2023-05-03T13:00:00;998;;;17.2;37
12722;BME280;6425;50.316;8.114;2023-05-03T13:03:00;998;;;16.6;36.9
12722;BME280;6425;50.316;8.114;2023-05-03T13:06:00;998;;;16.8;37.8
12722;BME280;6425;50.316;8.114;2023-05-03T13:09:00;999;;;16.8;36.7
12722;BME280;6425;50.316;8.114;2023-05-03T13:12:00;998;;;17;38.3
12722;BME280;6425;50.316;8.114;2023-05-03T13:15:00;998;;;17.9;36
12722;BME280;6425;50.316;8.114;2023-05-03T13:18:00;998;;;17.8;35.5
12722;BME280;6425;50.316;8.114;2023-05-03T13:21:00;998;;;17.8;35.5
12722;BME280;6425;50.316;8.114;2023-05-03T13:24:00;998;;;17.6;36.2
12722;BME280;6425;50.316;8.114;2023-05-03T13:27:00;998;;;17.3;36.7
12722;BME280;6425;50.316;8.114;2023-05-03T13:30:00;998;;;17.7;35.7
12722;BME280;6425;50.316;8.114;2023-05-03T13:33:00;998;;;18.6;34.2
12722;BME280;6425;50.316;8.114;2023-05-03T13:36:00;998;;;18.4;34.2
12722;BME280;6425;50.316;8.114;2023-05-03T13:39:00;998;;;18.1;35.6
12722;BME280;6425;50.316;8.114;2023-05-03T13:42:00;998;;;18;36
12722;BME280;6425;50.316;8.114;2023-05-03T13:45:00;998;;;17.9;36.2
12722;BME280;6425;50.316;8.114;2023-05-03T13:48:00;998;;;17.4;35.6
12722;BME280;6425;50.316;8.114;2023-05-03T13:51:05;998;;;17.5;35.7
12722;BME280;6425;50.316;8.114;2023-05-03T13:54:00;998;;;17.6;36
12722;BME280;6425;50.316;8.114;2023-05-03T13:57:00;998;;;17.8;35.6
12722;BME280;6425;50.316;8.114;2023-05-03T14:00:00;998;;;18;35
12722;BME280;6425;50.316;8.114;2023-05-03T14:03:00;998;;;18;35.4
12722;BME280;6425;50.316;8.114;2023-05-03T14:06:00;998;;;18.5;34.4
12722;BME280;6425;50.316;8.114;2023-05-03T14:09:00;998;;;17.9;34.2
12722;BME280;6425;50.316;8.114;2023-05-03T14:12:00;998;;;18;34.9
12722;BME280;6425;50.316;8.114;2023-05-03T14:15:00;998;;;17.8;36.2
12722;BME280;6425;50.316;8.114;2023-05-03T14:18:00;998;;;18.1;34.4
12722;BME280;6425;50.316;8.114;2023-05-03T14:21:00;997;;;18.3;34.1
12722;BME280;6425;50.316;8.114;2023-05-03T14:24:00;997;;;17.9;34.5
12722;BME280;6425;50.316;8.114;2023-05-03T14:27:00;998;;;18;35
12722;BME280;6425;50.316;8.114;2023-05-03T14:30:00;997;;;17.8;34.5
12722;BME280;6425;50.316;8.114;2023-05-03T14:33:00;997;;;17.9;33.6
12722;BME280;6425;50.316;8.114;2023-05-03T14:36:00;997;;;18;33.9
12722;BME280;6425;50.316;8.114;2023-05-03T14:39:00;997;;;18;34.3
12722;BME280;6425;50.316;8.114;2023-05-03T14:42:00;997;;;18.1;34
12722;BME280;6425;50.316;8.114;2023-05-03T14:45:00;997;;;18.1;34.3
12722;BME280;6425;50.316;8.114;2023-05-03T14:48:00;997;;;18.3;34.7
12722;BME280;6425;50.316;8.114;2023-05-03T14:51:00;997;;;18.4;34.2
12722;BME280;6425;50.316;8.114;2023-05-03T14:54:00;997;;;18.4;34
12722;BME280;6425;50.316;8.114;2023-05-03T14:57:00;997;;;18.1;34.1
12722;BME280;6425;50.316;8.114;2023-05-03T15:00:00;997;;;18;34.3
12722;BME280;6425;50.316;8.114;2023-05-03T15:03:00;997;;;18.7;33.8
12722;BME280;6425;50.316;8.114;2023-05-03T15:06:00;997;;;19;29.5
12722;BME280;6425;50.316;8.114;2023-05-03T15:09:00;997;;;20;28.1
12722;BME280;6425;50.316;8.114;2023-05-03T15:12:00;997;;;20.5;28.1
12722;BME280;6425;50.316;8.114;2023-05-03T15:15:00;997;;;20;28.2
12722;BME280;6425;50.316;8.114;2023-05-03T15:18:00;997;;;19.5;28.8
12722;BME280;6425;50.316;8.114;2023-05-03T15:21:00;997;;;19.9;27.9
12722;BME280;6425;50.316;8.114;2023-05-03T15:24:00;997;;;19.4;28.1
12722;BME280;6425;50.316;8.114;2023-05-03T15:27:00;997;;;19.2;28.5
12722;BME280;6425;50.316;8.114;2023-05-03T15:30:00;997;;;19.4;27
12722;BME280;6425;50.316;8.114;2023-05-03T15:33:00;997;;;19.5;28.5
12722;BME280;6425;50.316;8.114;2023-05-03T15:36:00;997;;;19.7;28.4
12722;BME280;6425;50.316;8.114;2023-05-03T15:39:00;997;;;19.4;28.8
12722;BME280;6425;50.316;8.114;2023-05-03T15:42:00;997;;;18.8;28.5
12722;BME280;6425;50.316;8.114;2023-05-03T15:45:00;997;;;18.6;28.6
12722;BME280;6425;50.316;8.114;2023-05-03T15:48:00;997;;;18.7;30
12722;BME280;6425;50.316;8.114;2023-05-03T15:51:00;997;;;19.4;28.9
12722;BME280;6425;50.316;8.114;2023-05-03T15:54:00;997;;;19.6;27.5
12722;BME280;6425;50.316;8.114;2023-05-03T15:57:00;997;;;19.1;27.2
12722;BME280;6425;50.316;8.114;2023-05-03T16:00:00;997;;;19.2;28.8
12722;BME280;6425;50.316;8.114;2023-05-03T16:03:00;997;;;19.5;28.4
12722;BME280;6425;50.316;8.114;2023-05-03T16:06:00;997;;;19.2;30.2
12722;BME280;6425;50.316;8.114;2023-05-03T16:09:00;997;;;19;30
12722;BME280;6425;50.316;8.114;2023-05-03T16:12:00;997;;;18.9;31.1
12722;BME280;6425;50.316;8.114;2023-05-03T16:15:00;997;;;19.3;31.6
12722;BME280;6425;50.316;8.114;2023-05-03T16:18:00;997;;;18.7;30.7
12722;BME280;6425;50.316;8.114;2023-05-03T16:21:00;997;;;18.8;31.9
12722;BME280;6425;50.316;8.114;2023-05-03T16:24:00;997;;;19.5;31.7
12722;BME280;6425;50.316;8.114;2023-05-03T16:27:00;997;;;20;30.4
12722;BME280;6425;50.316;8.114;2023-05-03T16:30:00;997;;;18.9;32.6
12722;BME280;6425;50.316;8.114;2023-05-03T16:33:00;997;;;19;31.3
12722;BME280;6425;50.316;8.114;2023-05-03T16:36:00;997;;;18.8;31.9
12722;BME280;6425;50.316;8.114;2023-05-03T16:39:00;997;;;19;33.1
12722;BME280;6425;50.316;8.114;2023-05-03T16:42:00;997;;;18.5;32.6
12722;BME280;6425;50.316;8.114;2023-05-03T16:45:00;997;;;18.1;33.1
12722;BME280;6425;50.316;8.114;2023-05-03T16:48:00;997;;;17.9;33.6
12722;BME280;6425;50.316;8.114;2023-05-03T16:51:00;997;;;18.3;34.2
12722;BME280;6425;50.316;8.114;2023-05-03T16:54:00;997;;;18.3;34.5
12722;BME280;6425;50.316;8.114;2023-05-03T16:57:00;997;;;17.8;36.2
12722;BME280;6425;50.316;8.114;2023-05-03T17:00:00;997;;;17.9;35.4
12722;BME280;6425;50.316;8.114;2023-05-03T17:03:00;997;;;17.9;35.2
12722;BME280;6425;50.316;8.114;2023-05-03T17:06:00;997;;;18.1;34.4
12722;BME280;6425;50.316;8.114;2023-05-03T17:09:00;997;;;18.3;34.6
12722;BME280;6425;50.316;8.114;2023-05-03T17:12:00;997;;;18.2;35.5
12722;BME280;6425;50.316;8.114;2023-05-03T17:15:00;997;;;17.9;36.6
12722;BME280;6425;50.316;8.114;2023-05-03T17:18:00;997;;;18.2;37.4
12722;BME280;6425;50.316;8.114;2023-05-03T17:21:00;997;;;17.8;36.2
12722;BME280;6425;50.316;8.114;2023-05-03T17:24:00;997;;;17.6;37.5
12722;BME280;6425;50.316;8.114;2023-05-03T17:27:00;997;;;17.6;37.6
12722;BME280;6425;50.316;8.114;2023-05-03T17:30:00;997;;;17.4;39
12722;BME280;6425;50.316;8.114;2023-05-03T17:33:00;997;;;17.4;38.4
12722;BME280;6425;50.316;8.114;2023-05-03T17:36:00;997;;;17.5;38.2
12722;BME280;6425;50.316;8.114;2023-05-03T17:39:00;997;;;17.4;38.4
12722;BME280;6425;50.316;8.114;2023-05-03T17:42:00;997;;;17.2;38.5
12722;BME280;6425;50.316;8.114;2023-05-03T17:45:00;997;;;17.3;38.1
12722;BME280;6425;50.316;8.114;2023-05-03T17:48:01;997;;;16.9;38.6
12722;BME280;6425;50.316;8.114;2023-05-03T17:51:00;997;;;16.6;39.9
12722;BME280;6425;50.316;8.114;2023-05-03T17:54:00;997;;;16.7;39.9